createdAt,value
2023-02-06T09:35:21.171Z,0.71
2023-02-06T09:37:42.244Z,0.82
2023-02-06T09:40:02.274Z,0.97
2023-02-06T09:42:20.685Z,1.03
2023-02-06T09:44:36.217Z,1.08
2023-02-06T09:46:53.036Z,1.14
2023-02-06T09:49:10.727Z,1.08
2023-02-06T09:51:29.199Z,1.14
2023-02-06T09:53:49.594Z,1.25
2023-02-06T09:56:07.922Z,1.33
2023-02-06T09:58:26.054Z,1.44
2023-02-06T10:00:43.508Z,1.52
2023-02-06T10:03:01.660Z,1.51
2023-02-06T10:05:22.260Z,1.46
2023-02-06T10:08:12.458Z,1.47
2023-02-06T10:10:32.934Z,1.43
2023-02-06T10:12:53.296Z,1.42
2023-02-06T10:15:14.208Z,1.36
2023-02-06T10:17:34.933Z,1.34
2023-02-06T10:19:49.758Z,1.40
2023-02-06T10:22:06.130Z,1.40
2023-02-06T10:24:26.723Z,1.39
2023-02-06T10:26:42.253Z,1.39
2023-02-06T10:29:00.424Z,1.32
2023-02-06T10:32:24.460Z,1.33
2023-02-06T10:34:40.940Z,1.37
2023-02-06T10:37:04.157Z,1.43
2023-02-06T11:29:16.905Z,1.52
2023-02-06T11:33:04.707Z,1.58
2023-02-06T11:35:20.451Z,1.47
2023-02-06T11:37:41.245Z,1.44
2023-02-06T11:39:58.220Z,1.44
2023-02-06T11:42:18.910Z,1.43
2023-02-06T11:44:39.625Z,1.43
2023-02-06T11:47:00.266Z,1.36
2023-02-06T11:49:16.859Z,1.34
2023-02-06T11:51:36.010Z,1.26
2023-02-06T11:53:53.602Z,1.33
2023-02-06T11:56:35.403Z,1.26
2023-02-06T14:12:56.206Z,1.07
2023-02-06T15:00:02.308Z,0.85
2023-02-06T15:05:13.896Z,0.78
2023-02-06T15:07:30.862Z,0.75
2023-02-06T15:09:46.088Z,0.71
2023-02-06T15:12:02.996Z,0.71
2023-02-06T15:20:52.782Z,0.78
2023-02-06T15:33:20.498Z,0.71
2023-02-06T15:35:41.516Z,0.67
2023-02-06T15:38:21.805Z,0.62
2023-02-06T15:50:23.270Z,0.51
2023-02-06T15:53:31.124Z,0.45
2023-02-06T15:59:23.872Z,0.36
2023-02-06T16:03:00.046Z,0.27
2023-02-06T16:08:13.818Z,0.09
2023-02-06T16:14:21.775Z,-0.09
2023-02-06T16:16:50.900Z,-0.19
2023-02-06T17:34:07.268Z,-2.38
2023-02-06T17:36:29.650Z,-2.53
2023-02-06T17:38:50.305Z,-2.58
2023-02-06T17:41:08.099Z,-2.61
2023-02-06T17:43:25.013Z,-2.72
2023-02-06T17:45:42.953Z,-2.79
2023-02-06T17:48:00.652Z,-2.85
2023-02-06T17:50:18.752Z,-2.86
2023-02-06T17:52:36.559Z,-2.89
2023-02-06T17:54:54.774Z,-2.92
2023-02-06T17:57:13.718Z,-2.96
2023-02-06T17:59:31.833Z,-3.00
2023-02-06T18:01:48.592Z,-3.08
2023-02-06T18:04:04.954Z,-3.14
2023-02-06T18:06:23.035Z,-3.18
2023-02-06T18:08:40.777Z,-3.22
2023-02-06T18:10:57.305Z,-3.28
2023-02-06T18:13:13.837Z,-3.35
2023-02-06T18:15:32.041Z,-3.43
2023-02-06T18:17:50.052Z,-3.23
2023-02-06T18:20:05.634Z,-3.20
2023-02-06T18:22:23.713Z,-3.28
2023-02-06T18:24:39.390Z,-3.39
2023-02-06T18:26:55.022Z,-3.43
2023-02-06T18:29:13.122Z,-3.15
2023-02-06T18:31:28.766Z,-3.10
2023-02-06T18:33:40.847Z,-3.17
2023-02-06T18:35:57.502Z,-3.31
2023-02-06T18:38:18.269Z,-3.36
2023-02-06T18:40:40.196Z,-3.43
2023-02-06T18:44:19.839Z,-3.53
2023-02-06T18:50:49.696Z,-3.81
2023-02-06T18:52:56.650Z,-3.84
2023-02-06T18:55:25.065Z,-3.89
2023-02-06T18:57:30.929Z,-3.87
2023-02-06T18:59:43.644Z,-3.91
2023-02-06T19:02:02.513Z,-4.02
2023-02-06T19:04:20.401Z,-4.08
2023-02-06T19:06:47.181Z,-4.18
2023-02-06T19:08:56.214Z,-4.22
2023-02-06T19:11:18.649Z,-4.11
2023-02-06T19:13:34.014Z,-4.08
2023-02-06T19:15:47.453Z,-4.08
2023-02-06T19:18:03.058Z,-4.12
2023-02-06T19:20:24.242Z,-4.18
2023-02-06T19:22:42.679Z,-4.25
2023-02-06T19:24:57.371Z,-4.23
2023-02-06T19:27:11.902Z,-4.23
2023-02-06T19:29:36.543Z,-4.38
2023-02-06T19:31:53.283Z,-4.46
2023-02-06T19:34:08.702Z,-4.48
2023-02-06T19:36:24.351Z,-4.46
2023-02-06T19:38:39.868Z,-4.46
2023-02-06T19:40:55.489Z,-4.50
2023-02-06T19:43:14.573Z,-4.64
2023-02-06T19:45:30.167Z,-4.68
2023-02-06T19:47:43.255Z,-4.68
2023-02-06T19:49:58.813Z,-4.57
2023-02-06T19:52:16.925Z,-4.51
2023-02-06T19:54:53.498Z,-4.54
2023-02-06T19:56:47.091Z,-4.73
2023-02-06T19:59:06.041Z,-4.89
2023-02-06T20:01:22.803Z,-4.89
2023-02-06T20:03:40.915Z,-4.87
2023-02-06T20:05:57.984Z,-4.87
2023-02-06T20:08:44.480Z,-4.89
2023-02-06T20:10:31.700Z,-4.91
2023-02-06T20:12:45.724Z,-4.98
2023-02-06T20:15:05.401Z,-5.11
2023-02-06T20:17:31.425Z,-5.16
2023-02-06T20:19:47.345Z,-5.23
2023-02-06T20:21:58.357Z,-5.25
2023-02-06T20:24:13.628Z,-5.20
2023-02-06T20:26:34.137Z,-5.16
2023-02-06T20:28:49.803Z,-5.14
2023-02-06T20:31:11.499Z,-5.20
2023-02-06T20:33:26.489Z,-5.26
2023-02-06T20:35:55.187Z,-5.30
2023-02-06T20:38:20.690Z,-5.37
2023-02-06T20:40:22.778Z,-5.43
2023-02-06T20:42:40.856Z,-5.44
2023-02-06T20:44:58.975Z,-5.41
2023-02-06T20:47:17.030Z,-5.40
2023-02-06T20:49:32.633Z,-5.47
2023-02-06T20:51:53.936Z,-5.45
2023-02-06T20:54:14.305Z,-5.51
2023-02-06T20:56:28.280Z,-5.55
2023-02-06T20:58:43.494Z,-5.61
2023-02-06T21:00:59.948Z,-5.58
2023-02-06T21:03:51.607Z,-5.44
2023-02-06T21:05:48.731Z,-5.37
2023-02-06T21:08:04.304Z,-5.38
2023-02-06T21:10:24.437Z,-5.43
2023-02-06T21:13:54.740Z,-5.49
2023-02-06T21:16:11.900Z,-5.59
2023-02-06T21:18:28.050Z,-5.58
2023-02-06T21:20:46.298Z,-5.49
2023-02-06T21:23:05.443Z,-5.47
2023-02-06T21:25:18.632Z,-5.58
2023-02-06T21:27:39.730Z,-5.55
2023-02-06T21:29:55.800Z,-5.70
2023-02-06T21:32:16.386Z,-5.80
2023-02-06T21:34:37.344Z,-5.94
2023-02-06T21:36:52.854Z,-5.98
2023-02-06T21:39:11.796Z,-6.05
2023-02-06T21:41:26.549Z,-6.08
2023-02-06T21:43:42.137Z,-6.12
2023-02-06T21:46:00.301Z,-6.13
2023-02-06T21:48:14.878Z,-6.05
2023-02-06T21:50:33.104Z,-6.12
2023-02-06T21:52:48.583Z,-6.11
2023-02-06T21:55:06.716Z,-6.12
2023-02-06T21:57:22.827Z,-6.13
2023-02-06T21:59:40.324Z,-6.11
2023-02-06T22:01:58.439Z,-6.11
2023-02-06T22:04:14.098Z,-6.12
2023-02-06T22:06:29.707Z,-6.16
2023-02-06T22:08:46.375Z,-6.27
2023-02-06T22:11:04.416Z,-6.26
2023-02-06T22:13:22.526Z,-6.30
2023-02-06T22:15:40.921Z,-6.21
2023-02-06T22:17:58.716Z,-6.18
2023-02-06T22:20:16.283Z,-6.24
2023-02-06T22:22:29.872Z,-6.23
2023-02-06T22:24:44.462Z,-6.24
2023-02-06T22:27:00.119Z,-6.18
2023-02-06T22:29:15.672Z,-6.18
2023-02-06T22:31:33.772Z,-6.19
2023-02-06T22:33:49.365Z,-6.16
2023-02-06T22:36:04.932Z,-6.21
2023-02-06T22:38:23.047Z,-6.26
2023-02-06T22:40:41.185Z,-6.37
2023-02-06T22:42:59.191Z,-6.39
2023-02-06T22:45:14.809Z,-6.36
2023-02-06T22:47:32.897Z,-6.39
2023-02-06T22:49:48.507Z,-6.48
2023-02-06T22:52:06.645Z,-6.50
2023-02-06T22:54:22.177Z,-6.51
2023-02-06T22:56:40.304Z,-6.63
2023-02-06T22:58:58.384Z,-6.70
2023-02-06T23:01:17.572Z,-6.69
2023-02-06T23:03:33.040Z,-6.54
2023-02-06T23:05:51.312Z,-6.51
2023-02-06T23:08:10.444Z,-6.54
2023-02-06T23:10:28.367Z,-6.58
2023-02-06T23:12:43.999Z,-6.63
2023-02-06T23:15:04.708Z,-6.63
2023-02-06T23:17:25.100Z,-6.55
2023-02-06T23:19:41.523Z,-6.59
2023-02-06T23:21:59.208Z,-6.71
2023-02-06T23:24:17.481Z,-6.82
2023-02-06T23:26:33.574Z,-6.92
2023-02-06T23:28:48.582Z,-7.03
2023-02-06T23:31:06.696Z,-6.94
2023-02-06T23:33:28.140Z,-6.99
2023-02-06T23:35:42.948Z,-7.03
2023-02-06T23:37:58.352Z,-6.97
2023-02-06T23:40:14.187Z,-6.94
2023-02-06T23:42:32.062Z,-6.92
2023-02-06T23:44:50.907Z,-6.79
2023-02-06T23:47:04.815Z,-6.88
2023-02-06T23:49:23.756Z,-6.91
2023-02-06T23:51:37.410Z,-6.94
2023-02-06T23:53:59.777Z,-6.92
2023-02-06T23:56:19.238Z,-6.91
2023-02-06T23:58:38.261Z,-6.92
